sensor_id;sensor_type;location;lat;lon;timestamp;P1;durP1;ratioP1;P2;durP2;ratioP2
3329;SDS011;1677;49.576;10.990;2022-11-18T00:01:24;4.07;;;3.67;;
3329;SDS011;1677;49.576;10.990;2022-11-18T00:03:50;5.10;;;4.03;;
3329;SDS011;1677;49.576;10.990;2022-11-18T00:06:17;4.70;;;4.30;;
3329;SDS011;1677;49.576;10.990;2022-11-18T00:08:47;7.20;;;4.73;;
3329;SDS011;1677;49.576;10.990;2022-11-18T00:11:14;4.73;;;4.30;;
3329;SDS011;1677;49.576;10.990;2022-11-18T00:13:59;4.80;;;3.80;;
3329;SDS011;1677;49.576;10.990;2022-11-18T00:17:05;5.13;;;3.80;;
3329;SDS011;1677;49.576;10.990;2022-11-18T00:19:31;4.75;;;3.72;;
3329;SDS011;1677;49.576;10.990;2022-11-18T00:22:02;5.07;;;4.10;;
3329;SDS011;1677;49.576;10.990;2022-11-18T00:24:29;5.90;;;3.63;;
3329;SDS011;1677;49.576;10.990;2022-11-18T00:26:55;5.30;;;3.70;;
3329;SDS011;1677;49.576;10.990;2022-11-18T00:29:21;3.87;;;3.47;;
3329;SDS011;1677;49.576;10.990;2022-11-18T00:31:48;3.90;;;3.50;;
3329;SDS011;1677;49.576;10.990;2022-11-18T00:34:14;5.27;;;3.47;;
3329;SDS011;1677;49.576;10.990;2022-11-18T00:36:41;9.38;;;4.00;;
3329;SDS011;1677;49.576;10.990;2022-11-18T00:39:11;5.03;;;4.03;;
3329;SDS011;1677;49.576;10.990;2022-11-18T00:41:37;3.58;;;2.72;;
3329;SDS011;1677;49.576;10.990;2022-11-18T00:44:22;4.65;;;3.90;;
3329;SDS011;1677;49.576;10.990;2022-11-18T00:46:47;3.73;;;3.43;;
3329;SDS011;1677;49.576;10.990;2022-11-18T00:49:13;6.47;;;4.10;;
3329;SDS011;1677;49.576;10.990;2022-11-18T00:51:38;4.57;;;3.73;;
3329;SDS011;1677;49.576;10.990;2022-11-18T00:54:04;4.30;;;3.90;;
3329;SDS011;1677;49.576;10.990;2022-11-18T00:56:29;5.87;;;4.30;;
3329;SDS011;1677;49.576;10.990;2022-11-18T00:58:55;6.17;;;3.73;;
3329;SDS011;1677;49.576;10.990;2022-11-18T01:01:21;4.30;;;3.90;;
3329;SDS011;1677;49.576;10.990;2022-11-18T01:03:46;7.83;;;4.20;;
3329;SDS011;1677;49.576;10.990;2022-11-18T01:06:12;4.17;;;2.97;;
3329;SDS011;1677;49.576;10.990;2022-11-18T01:08:37;3.93;;;3.37;;
3329;SDS011;1677;49.576;10.990;2022-11-18T01:11:03;4.37;;;3.30;;
3329;SDS011;1677;49.576;10.990;2022-11-18T01:13:50;5.05;;;3.33;;
3329;SDS011;1677;49.576;10.990;2022-11-18T01:16:17;3.85;;;3.47;;
3329;SDS011;1677;49.576;10.990;2022-11-18T01:18:44;5.03;;;3.78;;
3329;SDS011;1677;49.576;10.990;2022-11-18T01:21:10;6.77;;;3.77;;
3329;SDS011;1677;49.576;10.990;2022-11-18T01:23:35;4.40;;;3.50;;
3329;SDS011;1677;49.576;10.990;2022-11-18T01:26:05;6.30;;;3.67;;
3329;SDS011;1677;49.576;10.990;2022-11-18T01:28:33;3.30;;;3.00;;
3329;SDS011;1677;49.576;10.990;2022-11-18T01:31:02;5.20;;;3.03;;
3329;SDS011;1677;49.576;10.990;2022-11-18T01:33:29;4.38;;;3.10;;
3329;SDS011;1677;49.576;10.990;2022-11-18T01:35:55;3.23;;;2.93;;
3329;SDS011;1677;49.576;10.990;2022-11-18T01:38:20;6.30;;;3.37;;
3329;SDS011;1677;49.576;10.990;2022-11-18T01:40:46;3.83;;;2.40;;
3329;SDS011;1677;49.576;10.990;2022-11-18T01:43:11;3.07;;;2.53;;
3329;SDS011;1677;49.576;10.990;2022-11-18T01:45:40;4.88;;;3.08;;
3329;SDS011;1677;49.576;10.990;2022-11-18T01:50:36;3.42;;;3.00;;
3329;SDS011;1677;49.576;10.990;2022-11-18T01:53:08;3.13;;;2.83;;
3329;SDS011;1677;49.576;10.990;2022-11-18T01:55:40;3.70;;;3.40;;
3329;SDS011;1677;49.576;10.990;2022-11-18T01:58:14;3.17;;;2.90;;
3329;SDS011;1677;49.576;10.990;2022-11-18T02:00:46;5.38;;;3.03;;
3329;SDS011;1677;49.576;10.990;2022-11-18T02:03:12;4.50;;;3.77;;
3329;SDS011;1677;49.576;10.990;2022-11-18T02:05:39;4.28;;;3.78;;
3329;SDS011;1677;49.576;10.990;2022-11-18T02:08:06;3.92;;;3.25;;
3329;SDS011;1677;49.576;10.990;2022-11-18T02:10:32;6.77;;;3.33;;
3329;SDS011;1677;49.576;10.990;2022-11-18T02:12:57;4.13;;;3.30;;
3329;SDS011;1677;49.576;10.990;2022-11-18T02:18:27;7.68;;;3.55;;
3329;SDS011;1677;49.576;10.990;2022-11-18T02:29:43;4.03;;;3.45;;
3329;SDS011;1677;49.576;10.990;2022-11-18T02:32:21;5.47;;;3.88;;
3329;SDS011;1677;49.576;10.990;2022-11-18T02:34:59;4.65;;;3.35;;
3329;SDS011;1677;49.576;10.990;2022-11-18T02:37:50;4.07;;;3.67;;
3329;SDS011;1677;49.576;10.990;2022-11-18T02:40:32;4.75;;;3.80;;
3329;SDS011;1677;49.576;10.990;2022-11-18T02:43:20;4.03;;;3.40;;
3329;SDS011;1677;49.576;10.990;2022-11-18T02:45:57;5.57;;;3.35;;
3329;SDS011;1677;49.576;10.990;2022-11-18T02:48:28;7.05;;;3.55;;
3329;SDS011;1677;49.576;10.990;2022-11-18T02:50:57;4.03;;;3.58;;
3329;SDS011;1677;49.576;10.990;2022-11-18T02:53:25;4.32;;;3.92;;
3329;SDS011;1677;49.576;10.990;2022-11-18T02:55:54;4.80;;;3.67;;
3329;SDS011;1677;49.576;10.990;2022-11-18T02:58:21;6.05;;;3.80;;
3329;SDS011;1677;49.576;10.990;2022-11-18T03:00:56;4.95;;;3.85;;
3329;SDS011;1677;49.576;10.990;2022-11-18T03:03:25;3.28;;;3.03;;
3329;SDS011;1677;49.576;10.990;2022-11-18T03:08:46;5.47;;;4.38;;
3329;SDS011;1677;49.576;10.990;2022-11-18T03:11:36;4.50;;;3.63;;
3329;SDS011;1677;49.576;10.990;2022-11-18T03:14:15;4.18;;;3.60;;
3329;SDS011;1677;49.576;10.990;2022-11-18T03:17:04;4.60;;;3.85;;
3329;SDS011;1677;49.576;10.990;2022-11-18T03:19:42;5.47;;;4.75;;
3329;SDS011;1677;49.576;10.990;2022-11-18T03:22:27;4.32;;;3.45;;
3329;SDS011;1677;49.576;10.990;2022-11-18T03:25:13;5.82;;;4.30;;
3329;SDS011;1677;49.576;10.990;2022-11-18T03:28:07;6.93;;;4.47;;
3329;SDS011;1677;49.576;10.990;2022-11-18T03:30:49;6.07;;;5.20;;
3329;SDS011;1677;49.576;10.990;2022-11-18T03:33:21;4.68;;;3.58;;
3329;SDS011;1677;49.576;10.990;2022-11-18T03:35:52;4.95;;;4.20;;
3329;SDS011;1677;49.576;10.990;2022-11-18T03:38:21;8.93;;;4.30;;
3329;SDS011;1677;49.576;10.990;2022-11-18T03:40:54;4.63;;;4.22;;
3329;SDS011;1677;49.576;10.990;2022-11-18T03:43:25;6.32;;;4.57;;
3329;SDS011;1677;49.576;10.990;2022-11-18T03:45:56;8.35;;;4.20;;
3329;SDS011;1677;49.576;10.990;2022-11-18T03:48:32;5.22;;;4.20;;
3329;SDS011;1677;49.576;10.990;2022-11-18T03:51:05;6.18;;;5.30;;
3329;SDS011;1677;49.576;10.990;2022-11-18T03:53:38;7.63;;;6.82;;
3329;SDS011;1677;49.576;10.990;2022-11-18T03:56:11;7.10;;;6.15;;
3329;SDS011;1677;49.576;10.990;2022-11-18T03:58:52;8.60;;;5.75;;
3329;SDS011;1677;49.576;10.990;2022-11-18T04:01:45;7.97;;;6.65;;
3329;SDS011;1677;49.576;10.990;2022-11-18T04:04:21;8.75;;;6.75;;
3329;SDS011;1677;49.576;10.990;2022-11-18T04:06:49;7.55;;;6.18;;
3329;SDS011;1677;49.576;10.990;2022-11-18T04:09:28;11.40;;;7.10;;
3329;SDS011;1677;49.576;10.990;2022-11-18T04:11:58;10.15;;;6.97;;
3329;SDS011;1677;49.576;10.990;2022-11-18T04:14:32;10.30;;;6.70;;
3329;SDS011;1677;49.576;10.990;2022-11-18T04:17:04;12.02;;;6.10;;
3329;SDS011;1677;49.576;10.990;2022-11-18T04:19:34;10.38;;;5.93;;
3329;SDS011;1677;49.576;10.990;2022-11-18T04:22:00;10.90;;;7.40;;
3329;SDS011;1677;49.576;10.990;2022-11-18T04:24:26;6.85;;;5.97;;
3329;SDS011;1677;49.576;10.990;2022-11-18T04:26:52;12.90;;;6.77;;
3329;SDS011;1677;49.576;10.990;2022-11-18T04:29:17;8.53;;;7.20;;
3329;SDS011;1677;49.576;10.990;2022-11-18T04:31:43;10.10;;;6.60;;
3329;SDS011;1677;49.576;10.990;2022-11-18T04:34:09;10.40;;;7.20;;
3329;SDS011;1677;49.576;10.990;2022-11-18T04:36:34;9.57;;;6.97;;
3329;SDS011;1677;49.576;10.990;2022-11-18T04:39:00;9.83;;;6.70;;
3329;SDS011;1677;49.576;10.990;2022-11-18T04:41:25;9.40;;;6.33;;
3329;SDS011;1677;49.576;10.990;2022-11-18T04:44:11;7.40;;;5.70;;
3329;SDS011;1677;49.576;10.990;2022-11-18T04:46:37;9.43;;;6.33;;
3329;SDS011;1677;49.576;10.990;2022-11-18T04:49:07;9.18;;;6.80;;
3329;SDS011;1677;49.576;10.990;2022-11-18T04:51:33;7.07;;;6.38;;
3329;SDS011;1677;49.576;10.990;2022-11-18T04:53:59;10.18;;;7.18;;
3329;SDS011;1677;49.576;10.990;2022-11-18T04:56:25;10.60;;;6.50;;
3329;SDS011;1677;49.576;10.990;2022-11-18T04:58:50;8.33;;;7.40;;
3329;SDS011;1677;49.576;10.990;2022-11-18T05:01:16;6.47;;;5.13;;
3329;SDS011;1677;49.576;10.990;2022-11-18T05:03:41;7.00;;;5.63;;
3329;SDS011;1677;49.576;10.990;2022-11-18T05:06:07;4.60;;;4.13;;
3329;SDS011;1677;49.576;10.990;2022-11-18T05:08:32;6.77;;;6.13;;
3329;SDS011;1677;49.576;10.990;2022-11-18T05:10:58;6.50;;;4.80;;
3329;SDS011;1677;49.576;10.990;2022-11-18T05:13:43;6.40;;;4.90;;
3329;SDS011;1677;49.576;10.990;2022-11-18T05:16:09;5.63;;;4.50;;
3329;SDS011;1677;49.576;10.990;2022-11-18T05:18:34;5.20;;;4.50;;
3329;SDS011;1677;49.576;10.990;2022-11-18T05:21:03;6.57;;;5.00;;
3329;SDS011;1677;49.576;10.990;2022-11-18T05:23:30;5.28;;;4.70;;
3329;SDS011;1677;49.576;10.990;2022-11-18T05:25:55;7.17;;;4.77;;
3329;SDS011;1677;49.576;10.990;2022-11-18T05:28:21;5.73;;;4.77;;
3329;SDS011;1677;49.576;10.990;2022-11-18T05:30:46;5.47;;;4.53;;
3329;SDS011;1677;49.576;10.990;2022-11-18T05:33:12;5.23;;;4.40;;
3329;SDS011;1677;49.576;10.990;2022-11-18T05:35:38;7.30;;;4.67;;
3329;SDS011;1677;49.576;10.990;2022-11-18T05:38:03;5.50;;;4.27;;
3329;SDS011;1677;49.576;10.990;2022-11-18T05:40:29;6.67;;;4.10;;
3329;SDS011;1677;49.576;10.990;2022-11-18T05:42:54;6.60;;;4.57;;
3329;SDS011;1677;49.576;10.990;2022-11-18T05:45:35;4.65;;;4.25;;
3329;SDS011;1677;49.576;10.990;2022-11-18T05:48:01;8.23;;;4.80;;
3329;SDS011;1677;49.576;10.990;2022-11-18T05:50:28;5.03;;;4.43;;
3329;SDS011;1677;49.576;10.990;2022-11-18T05:52:56;6.03;;;4.40;;
3329;SDS011;1677;49.576;10.990;2022-11-18T05:55:23;5.03;;;4.53;;
3329;SDS011;1677;49.576;10.990;2022-11-18T05:57:53;12.88;;;5.45;;
3329;SDS011;1677;49.576;10.990;2022-11-18T06:00:18;6.90;;;5.20;;
3329;SDS011;1677;49.576;10.990;2022-11-18T06:02:45;9.45;;;6.00;;
3329;SDS011;1677;49.576;10.990;2022-11-18T06:05:12;7.15;;;5.50;;
3329;SDS011;1677;49.576;10.990;2022-11-18T06:07:40;6.93;;;5.75;;
3329;SDS011;1677;49.576;10.990;2022-11-18T06:10:07;7.90;;;5.60;;
3329;SDS011;1677;49.576;10.990;2022-11-18T06:12:38;5.60;;;5.00;;
3329;SDS011;1677;49.576;10.990;2022-11-18T06:17:45;7.07;;;5.63;;
3329;SDS011;1677;49.576;10.990;2022-11-18T06:20:16;10.73;;;6.28;;
3329;SDS011;1677;49.576;10.990;2022-11-18T06:22:43;8.27;;;5.70;;
3329;SDS011;1677;49.576;10.990;2022-11-18T06:25:09;6.43;;;5.00;;
3329;SDS011;1677;49.576;10.990;2022-11-18T06:27:34;7.93;;;4.80;;
3329;SDS011;1677;49.576;10.990;2022-11-18T06:30:00;6.37;;;5.70;;
3329;SDS011;1677;49.576;10.990;2022-11-18T06:32:26;5.83;;;5.17;;
3329;SDS011;1677;49.576;10.990;2022-11-18T06:34:51;11.60;;;6.00;;
3329;SDS011;1677;49.576;10.990;2022-11-18T06:37:17;6.40;;;4.53;;
3329;SDS011;1677;49.576;10.990;2022-11-18T06:39:47;7.05;;;5.53;;
3329;SDS011;1677;49.576;10.990;2022-11-18T06:42:12;5.70;;;5.20;;
3329;SDS011;1677;49.576;10.990;2022-11-18T06:44:56;7.95;;;5.50;;
3329;SDS011;1677;49.576;10.990;2022-11-18T06:47:22;6.43;;;5.70;;
3329;SDS011;1677;49.576;10.990;2022-11-18T06:49:48;9.90;;;5.60;;
3329;SDS011;1677;49.576;10.990;2022-11-18T06:52:13;5.20;;;4.70;;
3329;SDS011;1677;49.576;10.990;2022-11-18T06:54:39;5.00;;;4.20;;
3329;SDS011;1677;49.576;10.990;2022-11-18T06:57:04;4.67;;;4.27;;
3329;SDS011;1677;49.576;10.990;2022-11-18T06:59:30;6.10;;;4.70;;
3329;SDS011;1677;49.576;10.990;2022-11-18T07:01:56;5.63;;;4.37;;
3329;SDS011;1677;49.576;10.990;2022-11-18T07:04:21;4.70;;;3.97;;
3329;SDS011;1677;49.576;10.990;2022-11-18T07:06:47;4.37;;;3.97;;
3329;SDS011;1677;49.576;10.990;2022-11-18T07:09:13;4.97;;;4.20;;
3329;SDS011;1677;49.576;10.990;2022-11-18T07:11:38;4.50;;;4.00;;
3329;SDS011;1677;49.576;10.990;2022-11-18T07:14:05;4.85;;;4.25;;
3329;SDS011;1677;49.576;10.990;2022-11-18T07:16:32;4.43;;;4.00;;
3329;SDS011;1677;49.576;10.990;2022-11-18T07:19:00;6.95;;;5.00;;
3329;SDS011;1677;49.576;10.990;2022-11-18T07:21:26;4.40;;;4.03;;
3329;SDS011;1677;49.576;10.990;2022-11-18T07:23:53;5.75;;;3.97;;
3329;SDS011;1677;49.576;10.990;2022-11-18T07:26:20;5.28;;;3.95;;
3329;SDS011;1677;49.576;10.990;2022-11-18T07:28:46;4.93;;;3.43;;
3329;SDS011;1677;49.576;10.990;2022-11-18T07:31:13;4.43;;;3.80;;
3329;SDS011;1677;49.576;10.990;2022-11-18T07:33:41;4.25;;;3.63;;
3329;SDS011;1677;49.576;10.990;2022-11-18T07:38:34;7.20;;;4.35;;
3329;SDS011;1677;49.576;10.990;2022-11-18T07:41:19;4.90;;;4.40;;
3329;SDS011;1677;49.576;10.990;2022-11-18T07:43:50;4.40;;;4.00;;
3329;SDS011;1677;49.576;10.990;2022-11-18T07:46:17;4.82;;;4.00;;
3329;SDS011;1677;49.576;10.990;2022-11-18T07:48:48;5.15;;;4.05;;
3329;SDS011;1677;49.576;10.990;2022-11-18T07:51:16;6.07;;;4.68;;
3329;SDS011;1677;49.576;10.990;2022-11-18T07:53:42;4.97;;;4.47;;
3329;SDS011;1677;49.576;10.990;2022-11-18T07:56:08;5.13;;;4.30;;
3329;SDS011;1677;49.576;10.990;2022-11-18T07:58:35;4.18;;;3.78;;
3329;SDS011;1677;49.576;10.990;2022-11-18T08:01:14;8.48;;;3.80;;
3329;SDS011;1677;49.576;10.990;2022-11-18T08:03:42;8.30;;;3.70;;
3329;SDS011;1677;49.576;10.990;2022-11-18T08:06:08;2.08;;;1.73;;
3329;SDS011;1677;49.576;10.990;2022-11-18T08:08:36;2.58;;;2.13;;
3329;SDS011;1677;49.576;10.990;2022-11-18T08:11:03;2.03;;;1.83;;
3329;SDS011;1677;49.576;10.990;2022-11-18T08:13:30;2.40;;;2.20;;
3329;SDS011;1677;49.576;10.990;2022-11-18T08:15:56;2.28;;;1.77;;
3329;SDS011;1677;49.576;10.990;2022-11-18T08:18:22;1.77;;;1.60;;
3329;SDS011;1677;49.576;10.990;2022-11-18T08:20:48;2.20;;;2.00;;
3329;SDS011;1677;49.576;10.990;2022-11-18T08:23:14;4.80;;;1.80;;
3329;SDS011;1677;49.576;10.990;2022-11-18T08:25:41;1.67;;;1.38;;
3329;SDS011;1677;49.576;10.990;2022-11-18T08:28:07;1.83;;;1.20;;
3329;SDS011;1677;49.576;10.990;2022-11-18T08:30:33;1.80;;;1.27;;
3329;SDS011;1677;49.576;10.990;2022-11-18T08:32:59;1.10;;;1.00;;
3329;SDS011;1677;49.576;10.990;2022-11-18T08:35:25;2.90;;;1.33;;
3329;SDS011;1677;49.576;10.990;2022-11-18T08:37:51;1.90;;;1.38;;
3329;SDS011;1677;49.576;10.990;2022-11-18T08:40:17;2.00;;;1.07;;
3329;SDS011;1677;49.576;10.990;2022-11-18T08:42:43;1.63;;;1.10;;
3329;SDS011;1677;49.576;10.990;2022-11-18T08:45:09;1.33;;;1.23;;
3329;SDS011;1677;49.576;10.990;2022-11-18T08:47:35;2.67;;;1.40;;
3329;SDS011;1677;49.576;10.990;2022-11-18T08:50:05;1.95;;;1.75;;
3329;SDS011;1677;49.576;10.990;2022-11-18T08:52:32;2.45;;;1.05;;
3329;SDS011;1677;49.576;10.990;2022-11-18T08:54:58;1.30;;;1.10;;
3329;SDS011;1677;49.576;10.990;2022-11-18T08:57:24;1.30;;;1.20;;
3329;SDS011;1677;49.576;10.990;2022-11-18T08:59:49;1.60;;;1.10;;
3329;SDS011;1677;49.576;10.990;2022-11-18T09:02:16;1.20;;;0.90;;
3329;SDS011;1677;49.576;10.990;2022-11-18T09:04:45;1.48;;;1.30;;
3329;SDS011;1677;49.576;10.990;2022-11-18T09:07:11;1.73;;;1.63;;
3329;SDS011;1677;49.576;10.990;2022-11-18T09:09:37;2.47;;;1.43;;
3329;SDS011;1677;49.576;10.990;2022-11-18T09:12:02;1.87;;;1.40;;
3329;SDS011;1677;49.576;10.990;2022-11-18T09:14:29;1.20;;;1.10;;
3329;SDS011;1677;49.576;10.990;2022-11-18T09:16:54;1.30;;;1.20;;
3329;SDS011;1677;49.576;10.990;2022-11-18T09:19:20;1.53;;;1.00;;
3329;SDS011;1677;49.576;10.990;2022-11-18T09:21:45;1.27;;;1.03;;
3329;SDS011;1677;49.576;10.990;2022-11-18T09:24:11;1.70;;;1.10;;
3329;SDS011;1677;49.576;10.990;2022-11-18T09:26:37;2.40;;;1.20;;
3329;SDS011;1677;49.576;10.990;2022-11-18T09:29:03;6.63;;;1.50;;
3329;SDS011;1677;49.576;10.990;2022-11-18T09:31:28;1.40;;;1.30;;
3329;SDS011;1677;49.576;10.990;2022-11-18T09:33:54;2.07;;;1.03;;
3329;SDS011;1677;49.576;10.990;2022-11-18T09:36:23;3.90;;;1.17;;
3329;SDS011;1677;49.576;10.990;2022-11-18T09:38:49;0.93;;;0.82;;
3329;SDS011;1677;49.576;10.990;2022-11-18T09:46:27;1.75;;;1.33;;
3329;SDS011;1677;49.576;10.990;2022-11-18T09:49:07;2.05;;;1.10;;
3329;SDS011;1677;49.576;10.990;2022-11-18T09:51:45;1.33;;;1.08;;
3329;SDS011;1677;49.576;10.990;2022-11-18T09:57:01;4.63;;;1.58;;
3329;SDS011;1677;49.576;10.990;2022-11-18T09:59:29;1.33;;;1.15;;
3329;SDS011;1677;49.576;10.990;2022-11-18T10:01:58;1.08;;;0.90;;
3329;SDS011;1677;49.576;10.990;2022-11-18T10:04:45;1.40;;;1.02;;
3329;SDS011;1677;49.576;10.990;2022-11-18T10:07:14;3.13;;;1.10;;
3329;SDS011;1677;49.576;10.990;2022-11-18T10:09:45;1.45;;;1.00;;
3329;SDS011;1677;49.576;10.990;2022-11-18T10:23:11;1.45;;;1.35;;
3329;SDS011;1677;49.576;10.990;2022-11-18T10:25:42;1.20;;;1.10;;
3329;SDS011;1677;49.576;10.990;2022-11-18T10:28:15;1.97;;;1.57;;
3329;SDS011;1677;49.576;10.990;2022-11-18T10:30:43;3.15;;;2.85;;
3329;SDS011;1677;49.576;10.990;2022-11-18T10:35:47;1.83;;;1.63;;
3329;SDS011;1677;49.576;10.990;2022-11-18T10:40:42;1.37;;;0.97;;
3329;SDS011;1677;49.576;10.990;2022-11-18T10:43:40;1.10;;;0.80;;
3329;SDS011;1677;49.576;10.990;2022-11-18T10:46:27;2.95;;;1.08;;
3329;SDS011;1677;49.576;10.990;2022-11-18T10:49:15;1.20;;;0.88;;
3329;SDS011;1677;49.576;10.990;2022-11-18T10:54:19;1.70;;;1.42;;
3329;SDS011;1677;49.576;10.990;2022-11-18T10:56:50;2.40;;;2.03;;
3329;SDS011;1677;49.576;10.990;2022-11-18T10:59:28;1.20;;;1.10;;
3329;SDS011;1677;49.576;10.990;2022-11-18T11:04:44;1.48;;;1.10;;
3329;SDS011;1677;49.576;10.990;2022-11-18T11:12:36;1.30;;;1.20;;
3329;SDS011;1677;49.576;10.990;2022-11-18T11:15:18;2.22;;;2.03;;
3329;SDS011;1677;49.576;10.990;2022-11-18T11:17:51;2.05;;;1.83;;
3329;SDS011;1677;49.576;10.990;2022-11-18T11:20:40;2.10;;;1.35;;
3329;SDS011;1677;49.576;10.990;2022-11-18T11:23:09;1.47;;;1.37;;
3329;SDS011;1677;49.576;10.990;2022-11-18T11:25:47;2.30;;;1.20;;
3329;SDS011;1677;49.576;10.990;2022-11-18T11:28:28;3.03;;;1.38;;
3329;SDS011;1677;49.576;10.990;2022-11-18T11:31:18;2.85;;;1.25;;
3329;SDS011;1677;49.576;10.990;2022-11-18T11:45:03;2.03;;;1.85;;
3329;SDS011;1677;49.576;10.990;2022-11-18T11:55:53;2.38;;;2.08;;
3329;SDS011;1677;49.576;10.990;2022-11-18T12:06:40;1.90;;;1.70;;
3329;SDS011;1677;49.576;10.990;2022-11-18T12:09:14;2.53;;;1.90;;
3329;SDS011;1677;49.576;10.990;2022-11-18T12:12:40;1.60;;;1.50;;
3329;SDS011;1677;49.576;10.990;2022-11-18T12:15:03;1.65;;;1.55;;
3329;SDS011;1677;49.576;10.990;2022-11-18T12:17:54;1.70;;;1.60;;
3329;SDS011;1677;49.576;10.990;2022-11-18T12:20:43;1.85;;;1.63;;
3329;SDS011;1677;49.576;10.990;2022-11-18T12:23:18;2.13;;;1.60;;
3329;SDS011;1677;49.576;10.990;2022-11-18T12:25:50;1.40;;;1.20;;
3329;SDS011;1677;49.576;10.990;2022-11-18T12:28:36;2.27;;;1.40;;
3329;SDS011;1677;49.576;10.990;2022-11-18T12:33:46;1.20;;;1.10;;
3329;SDS011;1677;49.576;10.990;2022-11-18T12:38:57;1.45;;;1.35;;
3329;SDS011;1677;49.576;10.990;2022-11-18T12:44:27;1.58;;;1.48;;
3329;SDS011;1677;49.576;10.990;2022-11-18T12:46:57;2.10;;;1.90;;
3329;SDS011;1677;49.576;10.990;2022-11-18T12:51:56;3.17;;;1.80;;
3329;SDS011;1677;49.576;10.990;2022-11-18T12:54:30;1.80;;;1.70;;
3329;SDS011;1677;49.576;10.990;2022-11-18T12:57:03;1.80;;;1.70;;
3329;SDS011;1677;49.576;10.990;2022-11-18T12:59:41;2.17;;;1.98;;
3329;SDS011;1677;49.576;10.990;2022-11-18T13:04:34;2.30;;;2.10;;
3329;SDS011;1677;49.576;10.990;2022-11-18T13:07:01;1.80;;;1.70;;
3329;SDS011;1677;49.576;10.990;2022-11-18T13:09:36;2.35;;;1.50;;
3329;SDS011;1677;49.576;10.990;2022-11-18T13:12:06;2.78;;;2.10;;
3329;SDS011;1677;49.576;10.990;2022-11-18T13:14:41;3.22;;;2.05;;
3329;SDS011;1677;49.576;10.990;2022-11-18T13:20:31;3.88;;;1.90;;
3329;SDS011;1677;49.576;10.990;2022-11-18T13:23:00;2.35;;;1.98;;
3329;SDS011;1677;49.576;10.990;2022-11-18T13:26:04;2.22;;;2.03;;
3329;SDS011;1677;49.576;10.990;2022-11-18T13:28:39;1.83;;;1.73;;
3329;SDS011;1677;49.576;10.990;2022-11-18T13:33:53;2.63;;;2.22;;
3329;SDS011;1677;49.576;10.990;2022-11-18T13:36:22;2.40;;;2.20;;
3329;SDS011;1677;49.576;10.990;2022-11-18T13:38:55;2.22;;;2.03;;
3329;SDS011;1677;49.576;10.990;2022-11-18T13:41:26;3.15;;;2.05;;
3329;SDS011;1677;49.576;10.990;2022-11-18T13:44:08;2.15;;;1.92;;
3329;SDS011;1677;49.576;10.990;2022-11-18T13:46:36;2.88;;;2.33;;
3329;SDS011;1677;49.576;10.990;2022-11-18T13:49:04;2.97;;;2.15;;
3329;SDS011;1677;49.576;10.990;2022-11-18T13:51:30;2.67;;;2.47;;
3329;SDS011;1677;49.576;10.990;2022-11-18T13:53:56;2.30;;;2.10;;
3329;SDS011;1677;49.576;10.990;2022-11-18T13:56:23;2.20;;;2.00;;
3329;SDS011;1677;49.576;10.990;2022-11-18T13:58:55;2.00;;;1.80;;
3329;SDS011;1677;49.576;10.990;2022-11-18T14:01:24;1.90;;;1.70;;
3329;SDS011;1677;49.576;10.990;2022-11-18T14:03:56;2.83;;;1.83;;
3329;SDS011;1677;49.576;10.990;2022-11-18T14:11:44;3.30;;;1.83;;
3329;SDS011;1677;49.576;10.990;2022-11-18T14:14:28;2.90;;;1.93;;
3329;SDS011;1677;49.576;10.990;2022-11-18T14:17:29;2.40;;;1.90;;
3329;SDS011;1677;49.576;10.990;2022-11-18T14:19:50;2.53;;;2.10;;
3329;SDS011;1677;49.576;10.990;2022-11-18T14:22:18;2.67;;;2.47;;
3329;SDS011;1677;49.576;10.990;2022-11-18T14:24:58;2.95;;;2.63;;
3329;SDS011;1677;49.576;10.990;2022-11-18T14:29:59;3.10;;;2.80;;
3329;SDS011;1677;49.576;10.990;2022-11-18T14:32:27;3.20;;;2.60;;
3329;SDS011;1677;49.576;10.990;2022-11-18T14:34:57;3.88;;;2.63;;
3329;SDS011;1677;49.576;10.990;2022-11-18T14:37:26;2.35;;;2.15;;
3329;SDS011;1677;49.576;10.990;2022-11-18T14:39:55;5.30;;;3.00;;
3329;SDS011;1677;49.576;10.990;2022-11-18T14:42:21;3.15;;;2.50;;
3329;SDS011;1677;49.576;10.990;2022-11-18T14:44:47;3.17;;;2.87;;
3329;SDS011;1677;49.576;10.990;2022-11-18T14:47:19;3.42;;;2.95;;
3329;SDS011;1677;49.576;10.990;2022-11-18T14:49:51;2.92;;;2.67;;
3329;SDS011;1677;49.576;10.990;2022-11-18T14:52:16;3.40;;;3.00;;
3329;SDS011;1677;49.576;10.990;2022-11-18T14:54:42;2.70;;;2.50;;
3329;SDS011;1677;49.576;10.990;2022-11-18T14:57:11;3.23;;;2.37;;
3329;SDS011;1677;49.576;10.990;2022-11-18T14:59:40;3.45;;;3.05;;
3329;SDS011;1677;49.576;10.990;2022-11-18T15:02:10;2.67;;;2.30;;
3329;SDS011;1677;49.576;10.990;2022-11-18T15:04:38;5.32;;;3.47;;
3329;SDS011;1677;49.576;10.990;2022-11-18T15:07:05;2.88;;;2.67;;
3329;SDS011;1677;49.576;10.990;2022-11-18T15:09:30;3.67;;;2.80;;
3329;SDS011;1677;49.576;10.990;2022-11-18T15:11:56;4.40;;;3.07;;
3329;SDS011;1677;49.576;10.990;2022-11-18T15:14:21;3.17;;;2.87;;
3329;SDS011;1677;49.576;10.990;2022-11-18T15:16:47;4.83;;;3.30;;
3329;SDS011;1677;49.576;10.990;2022-11-18T15:19:13;2.80;;;2.60;;
3329;SDS011;1677;49.576;10.990;2022-11-18T15:21:39;3.78;;;3.17;;
3329;SDS011;1677;49.576;10.990;2022-11-18T15:24:05;3.03;;;2.83;;
3329;SDS011;1677;49.576;10.990;2022-11-18T15:26:35;3.70;;;3.30;;
3329;SDS011;1677;49.576;10.990;2022-11-18T15:29:03;4.10;;;3.70;;
3329;SDS011;1677;49.576;10.990;2022-11-18T15:31:29;4.23;;;3.83;;
3329;SDS011;1677;49.576;10.990;2022-11-18T15:33:55;4.80;;;3.03;;
3329;SDS011;1677;49.576;10.990;2022-11-18T15:36:21;3.40;;;3.13;;
3329;SDS011;1677;49.576;10.990;2022-11-18T15:38:49;16.98;;;3.80;;
3329;SDS011;1677;49.576;10.990;2022-11-18T15:41:23;4.18;;;3.58;;
3329;SDS011;1677;49.576;10.990;2022-11-18T15:43:50;5.25;;;3.20;;
3329;SDS011;1677;49.576;10.990;2022-11-18T15:46:18;4.80;;;4.10;;
3329;SDS011;1677;49.576;10.990;2022-11-18T15:48:45;4.15;;;3.75;;
3329;SDS011;1677;49.576;10.990;2022-11-18T15:51:11;3.60;;;3.28;;
3329;SDS011;1677;49.576;10.990;2022-11-18T15:53:36;3.58;;;3.22;;
3329;SDS011;1677;49.576;10.990;2022-11-18T15:58:39;3.87;;;3.27;;
3329;SDS011;1677;49.576;10.990;2022-11-18T16:01:05;6.07;;;3.63;;
3329;SDS011;1677;49.576;10.990;2022-11-18T16:03:32;4.27;;;3.47;;
3329;SDS011;1677;49.576;10.990;2022-11-18T16:05:58;3.93;;;3.63;;
3329;SDS011;1677;49.576;10.990;2022-11-18T16:08:23;5.67;;;4.17;;
3329;SDS011;1677;49.576;10.990;2022-11-18T16:10:53;7.77;;;4.50;;
3329;SDS011;1677;49.576;10.990;2022-11-18T16:13:38;6.95;;;4.80;;
3329;SDS011;1677;49.576;10.990;2022-11-18T16:16:04;6.50;;;4.80;;
3329;SDS011;1677;49.576;10.990;2022-11-18T16:18:29;5.53;;;4.30;;
3329;SDS011;1677;49.576;10.990;2022-11-18T16:20:56;5.33;;;4.83;;
3329;SDS011;1677;49.576;10.990;2022-11-18T16:23:22;8.07;;;5.30;;
3329;SDS011;1677;49.576;10.990;2022-11-18T16:25:48;5.70;;;5.10;;
3329;SDS011;1677;49.576;10.990;2022-11-18T16:28:14;4.60;;;4.20;;
3329;SDS011;1677;49.576;10.990;2022-11-18T16:30:40;4.80;;;4.30;;
3329;SDS011;1677;49.576;10.990;2022-11-18T16:33:30;5.40;;;4.90;;
3329;SDS011;1677;49.576;10.990;2022-11-18T16:35:55;5.57;;;5.03;;
3329;SDS011;1677;49.576;10.990;2022-11-18T16:38:21;4.50;;;4.10;;
3329;SDS011;1677;49.576;10.990;2022-11-18T16:40:53;5.33;;;4.83;;
3329;SDS011;1677;49.576;10.990;2022-11-18T16:43:22;4.90;;;4.50;;
3329;SDS011;1677;49.576;10.990;2022-11-18T16:45:49;4.65;;;4.25;;
3329;SDS011;1677;49.576;10.990;2022-11-18T16:48:18;7.85;;;5.05;;
3329;SDS011;1677;49.576;10.990;2022-11-18T16:50:48;5.82;;;5.05;;
3329;SDS011;1677;49.576;10.990;2022-11-18T16:53:23;4.90;;;4.35;;
3329;SDS011;1677;49.576;10.990;2022-11-18T16:55:49;3.30;;;3.00;;
3329;SDS011;1677;49.576;10.990;2022-11-18T16:58:15;2.83;;;2.33;;
3329;SDS011;1677;49.576;10.990;2022-11-18T17:00:40;3.23;;;2.60;;
3329;SDS011;1677;49.576;10.990;2022-11-18T17:03:06;2.00;;;1.80;;
3329;SDS011;1677;49.576;10.990;2022-11-18T17:05:34;1.87;;;1.60;;
3329;SDS011;1677;49.576;10.990;2022-11-18T17:08:00;1.48;;;1.38;;
3329;SDS011;1677;49.576;10.990;2022-11-18T17:10:25;6.43;;;5.10;;
3329;SDS011;1677;49.576;10.990;2022-11-18T17:12:51;4.20;;;3.80;;